Terminal Aerodrome Forecast
Issued by NWS

Home | Current Version | Previous Version | Text Only | Print | Product List | Glossary On
Versions: 1 2 3 4 5 6 7 8 9 10 11 12 13 14 15
072
FTUS43 KMQT 220403 AAA
TAFIWD
TAF AMD
KIWD 220403Z 2204/2224 29005KT 5SM BR BKN004
     FM220900 30004KT P6SM SCT015
     FM221400 31011G20KT P6SM FEW070=

USA.gov is the U.S. government's official web portal to all federal, state and local government web resources and services.